Time;durP1;ratioP1;P1;durP2;ratioP2;P2;SDS_P1;SDS_P2;PMS_P1;PMS_P2;Temp;Humidity;BMP_temperature;BMP_pressure;BME280_temperature;BME280_humidity;BME280_pressure;Samples;Min_cycle;Max_cycle;Signal;HPM_P1;HPM_P2
2022/01/28 00:00:13;;;;;;;3.42;2.30;;;;;;;2.14;43.92;98797.22;3349432;29;20037;-73
2022/01/28 00:02:06;;;;;;;4.30;3.17;;;;;;;2.18;43.96;98806.38;3349221;29;20417;-74
2022/01/28 00:03:47;;;;;;;3.05;2.42;;;;;;;2.16;43.82;98789.13;3348750;29;20041;-75
2022/01/28 00:05:28;;;;;;;4.25;2.97;;;;;;;2.14;43.60;98797.22;3349272;29;20421;-75
2022/01/28 00:07:08;;;;;;;5.80;2.97;;;;;;;2.15;43.59;98788.31;3349585;29;20055;-74
2022/01/28 00:08:49;;;;;;;3.00;2.70;;;;;;;2.16;43.80;98787.31;3349572;29;20079;-74
2022/01/28 00:10:30;;;;;;;3.00;2.58;;;;;;;2.15;43.86;98790.94;3349541;29;20054;-74
2022/01/28 00:12:12;;;;;;;5.60;2.28;;;;;;;2.16;44.10;98782.06;3349533;29;20046;-75
2022/01/28 00:14:00;;;;;;;5.85;3.20;;;;;;;2.16;43.78;98781.25;3348425;29;20421;-74
2022/01/28 00:16:04;;;;;;;4.53;2.47;;;;;;;2.16;43.79;98770.75;3349578;29;20057;-75
2022/01/28 00:38:55;;;;;;;4.50;2.53;;;;;;;1.99;43.77;98759.41;3353961;29;20041;-74
2022/01/28 00:40:35;;;;;;;5.80;2.95;;;;;;;2.00;43.84;98749.72;3352377;29;20048;-73
2022/01/28 00:42:17;;;;;;;5.40;2.70;;;;;;;2.02;43.93;98750.38;3351653;29;20467;-73
2022/01/28 00:43:57;;;;;;;10.85;3.45;;;;;;;2.05;44.18;98755.31;3350640;29;20140;-74
2022/01/28 00:45:38;;;;;;;7.70;3.03;;;;;;;2.06;44.13;98747.25;3351212;29;20114;-76
2022/01/28 00:47:19;;;;;;;4.97;2.80;;;;;;;2.07;44.07;98745.44;3351639;29;20462;-73
2022/01/28 00:48:59;;;;;;;3.90;2.90;;;;;;;2.06;44.15;98744.59;3351696;29;20054;-77
2022/01/28 00:50:42;;;;;;;3.90;2.70;;;;;;;2.02;43.98;98745.94;3351635;29;20454;-75
2022/01/28 00:52:23;;;;;;;5.03;2.70;;;;;;;1.98;44.07;98739.34;3351460;29;20077;-75
2022/01/28 00:54:03;;;;;;;4.93;3.38;;;;;;;1.95;44.15;98742.31;3351414;29;20049;-75
2022/01/28 00:55:44;;;;;;;4.20;3.03;;;;;;;1.92;43.94;98740.00;3351076;29;20148;-76
2022/01/28 00:57:25;;;;;;;4.90;2.80;;;;;;;1.88;43.97;98731.63;3351237;29;20049;-75
2022/01/28 00:59:05;;;;;;;5.72;3.13;;;;;;;1.90;44.21;98731.47;3363375;29;20517;-74
2022/01/28 01:00:46;;;;;;;2.83;2.40;;;;;;;1.91;44.18;98727.84;3353779;29;20049;-75
2022/01/28 01:02:27;;;;;;;4.90;4.00;;;;;;;1.92;44.41;98732.13;3351364;29;20417;-74
2022/01/28 01:04:07;;;;;;;7.43;2.85;;;;;;;1.95;44.40;98727.34;3351219;29;20118;-75
2022/01/28 01:05:48;;;;;;;5.05;2.83;;;;;;;1.97;44.33;98727.22;3351336;29;20048;-74
2022/01/28 01:07:30;;;;;;;4.20;2.88;;;;;;;1.98;44.27;98728.84;3351212;29;20077;-76
2022/01/28 01:09:11;;;;;;;4.63;2.85;;;;;;;1.99;44.58;98719.16;3351422;29;20128;-75
2022/01/28 01:10:53;;;;;;;5.85;3.20;;;;;;;1.95;44.36;98723.91;3350796;29;20041;-75
2022/01/28 01:12:40;;;;;;;4.55;2.85;;;;;;;1.92;44.44;98717.19;3351239;29;20042;-75
2022/01/28 01:14:21;;;;;;;4.28;3.50;;;;;;;1.91;44.22;98709.44;3351426;29;20080;-74
2022/01/28 01:16:02;;;;;;;3.72;2.95;;;;;;;1.92;44.36;98713.75;3351424;29;20049;-76
2022/01/28 01:17:55;;;;;;;7.30;3.08;;;;;;;1.91;44.37;98718.19;3351271;29;20170;-76
2022/01/28 01:19:41;;;;;;;5.38;2.97;;;;;;;1.90;44.21;98708.63;3350957;29;20430;-76
2022/01/28 01:21:27;;;;;;;3.42;2.67;;;;;;;1.89;44.13;98709.63;3351126;29;20080;-75
2022/01/28 01:23:14;;;;;;;4.50;2.50;;;;;;;1.84;44.42;98706.69;3351142;29;20105;-74
2022/01/28 01:25:03;;;;;;;5.13;2.90;;;;;;;1.85;44.20;98704.84;3350879;29;20053;-75
2022/01/28 01:26:44;;;;;;;4.80;2.58;;;;;;;1.83;44.26;98698.94;3351210;29;20069;-76
2022/01/28 01:28:30;;;;;;;7.30;3.40;;;;;;;1.81;44.30;98706.16;3351118;29;20037;-73
2022/01/28 01:30:13;;;;;;;3.60;3.15;;;;;;;1.78;44.47;98702.06;3350576;29;20058;-74
2022/01/28 01:32:01;;;;;;;3.70;2.20;;;;;;;1.74;44.37;98691.06;3350865;29;20054;-76
2022/01/28 01:35:49;;;;;;;6.85;3.63;;;;;;;1.68;44.32;98681.22;3342842;29;20482;-76
2022/01/28 01:37:30;;;;;;;3.88;2.70;;;;;;;1.69;44.27;98688.09;3350847;29;20105;-75
2022/01/28 01:39:15;;;;;;;3.42;2.47;;;;;;;1.66;44.19;98683.19;3350837;29;20065;-74
2022/01/28 01:40:59;;;;;;;4.20;2.80;;;;;;;1.65;44.25;98686.81;3349989;29;20051;-74
2022/01/28 01:45:36;;;;;;;4.55;3.15;;;;;;;1.67;44.44;98684.81;3350732;29;20045;-74
2022/01/28 01:52:14;;;;;;;5.10;3.00;;;;;;;1.72;44.74;98682.50;3350960;29;20077;-72
2022/01/28 01:53:57;;;;;;;5.10;3.58;;;;;;;1.73;44.57;98673.66;3350546;29;20418;-74
2022/01/28 01:55:38;;;;;;;4.75;2.80;;;;;;;1.69;44.57;98672.34;3350888;29;20056;-74
2022/01/28 01:57:19;;;;;;;4.40;2.97;;;;;;;1.70;44.58;98679.25;3362520;29;20080;-74
2022/01/28 01:59:01;;;;;;;4.72;3.53;;;;;;;1.70;44.60;98679.25;3352677;29;20053;-74
2022/01/28 02:00:41;;;;;;;6.10;3.90;;;;;;;1.70;44.60;98674.00;3350659;29;20502;-73
2022/01/28 02:02:22;;;;;;;3.38;2.85;;;;;;;1.70;44.90;98678.41;3350938;29;20069;-76
2022/01/28 02:04:03;;;;;;;4.40;2.83;;;;;;;1.68;44.75;98669.91;3363133;29;20575;-76
2022/01/28 02:05:44;;;;;;;8.18;4.00;;;;;;;1.67;44.71;98676.94;3353657;29;20044;-75
2022/01/28 02:07:25;;;;;;;6.20;3.53;;;;;;;1.66;44.78;98670.03;3351124;29;20042;-72
2022/01/28 02:09:07;;;;;;;7.82;3.75;;;;;;;1.63;44.80;98672.19;3351070;29;20798;-75
2022/01/28 02:10:49;;;;;;;3.58;3.28;;;;;;;1.62;44.83;98668.72;3351884;29;20098;-75
2022/01/28 02:12:52;;;;;;;4.78;3.47;;;;;;;1.66;45.30;98671.84;3351615;29;20080;-73
2022/01/28 02:14:33;;;;;;;4.57;2.90;;;;;;;1.63;45.06;98677.44;3352076;29;20073;-73
2022/01/28 02:16:13;;;;;;;4.63;3.13;;;;;;;1.60;45.04;98672.50;3351964;29;20044;-73
2022/01/28 02:17:54;;;;;;;5.28;3.40;;;;;;;1.59;45.04;98671.66;3351896;29;20041;-76
2022/01/28 02:19:36;;;;;;;4.68;3.50;;;;;;;1.57;44.96;98667.56;3351730;29;20049;-75
2022/01/28 02:21:18;;;;;;;4.68;3.58;;;;;;;1.54;44.91;98666.09;3350855;29;20045;-75
2022/01/28 02:22:59;;;;;;;6.15;3.67;;;;;;;1.52;45.00;98660.16;3351079;29;20463;-74
2022/01/28 02:24:43;;;;;;;5.55;3.78;;;;;;;1.51;44.88;98663.78;3350343;29;20061;-74
2022/01/28 02:26:24;;;;;;;6.43;3.95;;;;;;;1.46;44.93;98653.75;3350771;29;20081;-73
2022/01/28 02:28:07;;;;;;;5.88;4.38;;;;;;;1.45;45.03;98648.69;3350459;29;20045;-74
2022/01/28 02:29:50;;;;;;;6.18;3.03;;;;;;;1.43;44.96;98669.03;3350926;29;20056;-73
2022/01/28 02:31:30;;;;;;;;;;;;;;;1.52;45.11;98660.16;3351034;29;20053;-74
2022/01/28 02:33:12;;;;;;;5.30;3.80;;;;;;;1.41;45.02;98671.00;3350615;29;19931;-75
2022/01/28 02:34:53;;;;;;;5.38;3.58;;;;;;;1.37;44.60;98648.66;3350424;29;20046;-77
2022/01/28 02:36:34;;;;;;;4.37;3.10;;;;;;;1.34;44.94;98651.59;3350279;29;20044;-77
2022/01/28 02:38:17;;;;;;;5.07;3.20;;;;;;;1.30;45.27;98654.56;3350239;29;20813;-77
2022/01/28 02:39:59;;;;;;;5.97;3.45;;;;;;;1.30;45.15;98651.13;3349989;29;20057;-75
2022/01/28 02:41:44;;;;;;;3.55;2.80;;;;;;;1.30;45.03;98646.69;3350358;29;20473;-75
2022/01/28 02:43:59;;;;;;;4.05;3.40;;;;;;;1.28;45.53;98638.16;3349117;29;20056;-76
2022/01/28 02:45:34;;;;;;;6.70;3.58;;;;;;;1.29;45.26;98631.94;3349716;29;20505;-75
2022/01/28 02:47:18;;;;;;;8.93;4.05;;;;;;;1.29;45.25;98642.44;3350164;29;20147;-73
2022/01/28 02:49:10;;;;;;;5.78;2.97;;;;;;;1.28;45.35;98637.34;3349773;29;20033;-73
2022/01/28 02:51:13;;;;;;;8.00;2.92;;;;;;;1.26;45.42;98626.97;3349243;29;20041;-76
2022/01/28 02:53:04;;;;;;;5.03;2.97;;;;;;;1.30;45.42;98625.69;3349018;29;20049;-75
2022/01/28 02:54:47;;;;;;;5.78;3.15;;;;;;;1.31;45.77;98627.31;3349850;29;20053;-72
2022/01/28 02:58:22;;;;;;;4.93;3.13;;;;;;;1.34;45.71;98620.09;3349700;29;20042;-76
2022/01/28 03:00:03;;;;;;;5.82;3.85;;;;;;;1.30;45.25;98625.69;3350106;29;20052;-74
2022/01/28 03:01:44;;;;;;;4.85;3.40;;;;;;;1.27;45.62;98625.19;3349912;29;20053;-74
2022/01/28 03:03:25;;;;;;;5.97;3.95;;;;;;;1.20;45.62;98609.25;3349813;29;20390;-74
2022/01/28 03:06:49;;;;;;;4.90;3.30;;;;;;;1.17;45.65;98616.66;3349975;29;20065;-76
2022/01/28 03:08:30;;;;;;;6.28;3.58;;;;;;;1.19;45.80;98612.03;3349979;29;20555;-73
2022/01/28 03:11:59;;;;;;;5.22;3.45;;;;;;;1.23;45.71;98623.88;3349848;29;20290;-74
2022/01/28 03:15:38;;;;;;;6.43;4.18;;;;;;;1.19;45.65;98607.63;3349910;29;20397;-75
2022/01/28 03:19:18;;;;;;;5.68;3.35;;;;;;;1.12;45.56;98605.81;3361609;29;20041;-74
2022/01/28 03:21:11;;;;;;;6.63;3.80;;;;;;;1.07;45.29;98594.00;3351875;29;20065;-74
2022/01/28 03:22:52;;;;;;;6.10;4.47;;;;;;;1.03;45.74;98604.97;3361854;29;20107;-71
2022/01/28 03:24:33;;;;;;;5.75;4.00;;;;;;;1.01;45.58;98610.38;3351994;29;20081;-73
2022/01/28 03:26:14;;;;;;;7.20;3.67;;;;;;;1.01;45.80;98609.56;3350083;29;20051;-73
2022/01/28 03:27:58;;;;;;;7.10;3.42;;;;;;;1.00;45.50;98613.97;3350129;29;20041;-74
2022/01/28 03:29:39;;;;;;;6.43;3.60;;;;;;;0.98;45.84;98615.09;3349736;29;20045;-74
2022/01/28 03:31:19;;;;;;;8.00;3.55;;;;;;;0.95;45.77;98625.94;3349952;29;20117;-73
2022/01/28 03:33:00;;;;;;;5.07;3.50;;;;;;;0.92;45.45;98621.00;3349214;29;20061;-75
2022/01/28 03:34:41;;;;;;;6.95;3.78;;;;;;;0.89;45.62;98622.16;3350367;29;20571;-74
2022/01/28 03:36:22;;;;;;;7.22;3.72;;;;;;;0.91;45.94;98620.19;3349758;29;20041;-75
2022/01/28 03:38:06;;;;;;;5.00;3.35;;;;;;;0.94;45.48;98621.66;3349187;29;20049;-76
2022/01/28 03:39:47;;;;;;;5.35;3.80;;;;;;;0.94;45.92;98611.19;3346864;29;20041;-73
2022/01/28 03:41:28;;;;;;;6.38;3.70;;;;;;;0.99;45.78;98611.53;3349505;29;20104;-76
2022/01/28 03:43:08;;;;;;;6.38;3.80;;;;;;;1.02;46.01;98606.75;3349997;29;20075;-75
2022/01/28 03:44:49;;;;;;;7.25;4.70;;;;;;;1.06;45.68;98604.66;3349836;29;20053;-76
2022/01/28 03:46:30;;;;;;;8.45;4.72;;;;;;;1.06;45.89;98600.22;3361752;29;20120;-76
2022/01/28 03:48:10;;;;;;;6.05;4.60;;;;;;;1.07;45.78;98598.41;3352446;29;20050;-76
2022/01/28 03:49:51;;;;;;;5.40;3.80;;;;;;;1.08;45.65;98594.81;3350401;29;20048;-76
2022/01/28 03:51:32;;;;;;;7.72;3.42;;;;;;;1.05;45.77;98590.69;3349936;29;20596;-75
2022/01/28 03:53:13;;;;;;;7.43;4.30;;;;;;;1.06;45.87;98586.28;3349664;29;20064;-75
2022/01/28 03:54:53;;;;;;;9.95;4.03;;;;;;;1.09;46.06;98585.97;3350052;29;20517;-75
2022/01/28 03:56:34;;;;;;;4.00;3.53;;;;;;;1.14;45.75;98583.69;3349175;29;20069;-73
2022/01/28 03:58:15;;;;;;;6.75;4.55;;;;;;;1.13;45.78;98582.03;3349530;29;20037;-73
2022/01/28 03:59:55;;;;;;;6.22;3.97;;;;;;;1.12;45.84;98601.38;3351696;29;20105;-74
2022/01/28 04:01:38;;;;;;;7.93;3.90;;;;;;;1.07;46.00;98574.81;3352961;29;20053;-77
2022/01/28 04:12:55;;;;;;;6.85;4.35;;;;;;;0.93;46.15;98591.16;3356558;29;20517;-77
2022/01/28 04:18:00;;;;;;;6.43;4.45;;;;;;;0.87;46.24;98598.69;3353513;29;20051;-74
2022/01/28 04:19:41;;;;;;;6.95;4.22;;;;;;;0.87;46.37;98605.75;3355688;29;20045;-76
2022/01/28 04:21:21;;;;;;;7.85;4.30;;;;;;;0.86;46.35;98607.53;3354419;29;20042;-70
2022/01/28 04:23:02;;;;;;;7.82;4.85;;;;;;;0.87;46.26;98596.06;3355234;29;20090;-73
2022/01/28 04:24:43;;;;;;;10.82;4.90;;;;;;;0.90;46.38;98586.25;3355324;29;20057;-75
2022/01/28 04:26:24;;;;;;;7.18;4.38;;;;;;;0.93;46.23;98585.91;3354903;29;20056;-75
2022/01/28 04:28:04;;;;;;;10.30;4.65;;;;;;;0.97;46.58;98580.19;3354661;29;20041;-75
2022/01/28 04:29:46;;;;;;;9.23;5.32;;;;;;;0.99;46.64;98582.66;3356166;29;20058;-75
2022/01/28 04:31:26;;;;;;;6.82;4.85;;;;;;;1.00;46.72;98584.28;3354569;29;20101;-74
2022/01/28 04:33:07;;;;;;;12.52;5.55;;;;;;;1.02;46.59;98584.97;3354085;29;20097;-74
2022/01/28 04:34:48;;;;;;;8.23;6.03;;;;;;;1.05;46.63;98582.00;3354149;29;20124;-75
2022/01/28 04:36:34;;;;;;;7.13;4.68;;;;;;;1.08;46.57;98581.69;3355558;29;20050;-74
2022/01/28 04:40:11;;;;;;;10.38;5.82;;;;;;;1.15;46.73;98589.75;3354074;29;20421;-73
2022/01/28 04:42:02;;;;;;;8.63;4.93;;;;;;;1.15;46.88;98590.56;3352984;29;20096;-72
2022/01/28 04:43:49;;;;;;;8.15;5.38;;;;;;;1.12;46.68;98580.41;3352553;29;20049;-74
2022/01/28 04:45:40;;;;;;;9.68;5.68;;;;;;;1.10;47.37;98577.09;3352419;29;20110;-72
2022/01/28 04:47:40;;;;;;;7.63;4.97;;;;;;;1.02;47.39;98585.78;3351505;29;20084;-73
2022/01/28 04:49:31;;;;;;;10.15;5.38;;;;;;;0.91;47.51;98582.66;3351757;29;20436;-77
2022/01/28 05:05:02;;;;;;;10.13;6.15;;;;;;;0.29;48.35;98594.22;3351111;29;20105;-74
2022/01/28 05:14:41;;;;;;;10.25;5.38;;;;;;;-0.08;48.64;98576.97;3351224;29;20048;-74
2022/01/28 05:24:23;;;;;;;10.88;5.90;;;;;;;-0.29;48.82;98579.91;3350741;29;20053;-77
2022/01/28 05:28:03;;;;;;;9.77;5.65;;;;;;;-0.25;49.15;98567.38;3351229;29;20057;-76
2022/01/28 05:29:44;;;;;;;8.43;5.43;;;;;;;-0.25;49.38;98564.75;3351600;29;20160;-77
2022/01/28 05:31:25;;;;;;;7.18;4.00;;;;;;;-0.16;49.92;98563.81;3350771;29;20436;-78
2022/01/28 05:33:06;;;;;;;9.63;4.88;;;;;;;0.03;52.03;98559.34;3350932;29;20077;-76
2022/01/28 05:34:47;;;;;;;10.13;5.15;;;;;;;0.19;51.67;98560.25;3351060;29;20081;-78
2022/01/28 05:36:27;;;;;;;8.60;4.80;;;;;;;0.35;51.55;98559.50;3350863;29;20071;-75
2022/01/28 05:38:08;;;;;;;9.30;5.05;;;;;;;0.56;52.05;98558.28;3350589;29;20431;-76
2022/01/28 05:39:49;;;;;;;7.00;4.05;;;;;;;0.72;51.91;98547.81;3351163;29;20462;-76
2022/01/28 05:41:30;;;;;;;9.55;5.68;;;;;;;0.82;51.76;98538.03;3350948;29;20543;-78
2022/01/28 05:43:11;;;;;;;7.68;5.70;;;;;;;0.89;51.47;98551.31;3351618;29;20047;-78
2022/01/28 05:44:52;;;;;;;10.02;5.63;;;;;;;0.90;51.21;98555.56;3352021;29;20070;-78
2022/01/28 05:46:33;;;;;;;11.48;5.57;;;;;;;0.87;50.69;98551.47;3353336;29;20609;-79
2022/01/28 05:48:15;;;;;;;7.65;5.03;;;;;;;0.84;50.47;98540.50;3352326;29;20058;-80
2022/01/28 05:49:56;;;;;;;22.33;6.50;;;;;;;0.81;50.23;98543.44;3352826;29;20046;-77
2022/01/28 05:51:37;;;;;;;14.45;4.88;;;;;;;0.85;50.50;98539.50;3352712;29;20045;-78
2022/01/28 05:53:18;;;;;;;11.00;5.40;;;;;;;0.83;50.34;98550.16;3351408;29;20056;-80
2022/01/28 05:54:58;;;;;;;6.38;4.78;;;;;;;0.85;50.02;98553.47;3351311;29;20097;-80
2022/01/28 05:56:39;;;;;;;8.55;4.82;;;;;;;0.83;50.16;98552.78;3351010;29;20048;-81
2022/01/28 05:58:20;;;;;;;6.30;4.32;;;;;;;0.82;50.20;98545.88;3351324;29;20041;-80
2022/01/28 06:00:03;;;;;;;10.07;5.35;;;;;;;0.87;50.12;98538.34;3362208;29;20049;-80
2022/01/28 06:01:43;;;;;;;8.57;4.82;;;;;;;0.92;50.70;98547.56;3352993;29;20421;-79
2022/01/28 06:03:24;;;;;;;6.13;4.32;;;;;;;0.99;50.25;98551.19;3362692;29;20041;-79
2022/01/28 06:05:05;;;;;;;8.57;4.93;;;;;;;1.02;49.96;98537.75;3349799;29;20438;-78
2022/01/28 06:06:46;;;;;;;7.40;5.13;;;;;;;1.03;50.16;98544.63;3350634;29;20053;-78
2022/01/28 06:08:26;;;;;;;8.63;4.55;;;;;;;1.07;49.93;98545.94;3350778;29;20414;-81
2022/01/28 06:10:11;;;;;;;8.43;4.97;;;;;;;1.09;49.71;98549.25;3351228;29;20053;-80
2022/01/28 06:11:52;;;;;;;9.02;4.78;;;;;;;1.08;49.90;98537.09;3350461;29;20045;-78
2022/01/28 06:13:32;;;;;;;9.57;5.72;;;;;;;1.06;49.18;98525.94;3350860;29;20085;-80
2022/01/28 06:15:15;;;;;;;7.82;4.68;;;;;;;1.08;49.76;98537.09;3349872;29;20072;-83
2022/01/28 06:16:55;;;;;;;8.85;5.22;;;;;;;1.11;49.55;98522.81;3349943;29;20415;-78
2022/01/28 06:18:36;;;;;;;5.60;4.05;;;;;;;1.16;49.66;98529.25;3350464;29;20064;-80
2022/01/28 06:20:19;;;;;;;11.18;5.18;;;;;;;1.20;49.55;98530.53;3349212;29;20045;-79
2022/01/28 06:21:59;;;;;;;7.55;5.35;;;;;;;1.22;49.23;98536.44;3360050;29;20056;-81
2022/01/28 06:23:43;;;;;;;10.90;4.63;;;;;;;1.20;49.29;98530.53;3348989;29;20137;-81
2022/01/28 06:25:23;;;;;;;6.15;3.85;;;;;;;1.17;48.89;98538.75;3350212;29;20077;-81
2022/01/28 06:27:04;;;;;;;9.90;5.00;;;;;;;1.12;48.99;98522.66;3350582;29;20053;-83
2022/01/28 06:28:45;;;;;;;5.70;4.55;;;;;;;1.12;49.14;98530.53;3349384;29;20417;-78
2022/01/28 06:30:26;;;;;;;8.25;5.22;;;;;;;1.14;49.00;98519.88;3349695;29;20056;-79
2022/01/28 06:32:07;;;;;;;9.63;5.63;;;;;;;1.14;48.72;98536.44;3350480;29;20113;-80
2022/01/28 06:33:48;;;;;;;7.35;4.03;;;;;;;1.16;48.77;98523.16;3350521;29;20104;-80
2022/01/28 06:35:29;;;;;;;6.07;4.40;;;;;;;1.19;48.92;98530.69;3349793;29;20459;-83
2022/01/28 06:37:10;;;;;;;8.75;4.80;;;;;;;1.17;48.64;98519.56;3350325;29;20045;-79
2022/01/28 06:38:51;;;;;;;6.10;4.45;;;;;;;1.19;48.85;98534.16;3350394;29;20076;-79
2022/01/28 06:40:31;;;;;;;7.13;4.47;;;;;;;1.18;48.62;98527.25;3361974;29;20045;-80
2022/01/28 06:42:13;;;;;;;7.72;4.85;;;;;;;1.17;48.76;98516.94;3336820;29;20129;-80
2022/01/28 06:43:54;;;;;;;7.70;4.70;;;;;;;1.20;48.90;98524.47;3344622;29;20570;-77
2022/01/28 06:45:35;;;;;;;8.52;5.13;;;;;;;1.22;48.57;98527.75;3350616;29;20049;-82
2022/01/28 06:47:16;;;;;;;8.18;4.93;;;;;;;1.21;48.72;98511.16;3350336;29;20401;-80
2022/01/28 06:48:56;;;;;;;6.40;4.43;;;;;;;1.19;48.58;98528.91;3350728;29;20057;-82
2022/01/28 06:50:38;;;;;;;9.65;5.15;;;;;;;1.17;48.67;98530.88;3351487;29;20042;-78
2022/01/28 06:52:19;;;;;;;6.93;4.53;;;;;;;1.17;48.89;98520.38;3351444;29;20077;-81
2022/01/28 06:54:00;;;;;;;6.32;4.45;;;;;;;1.17;48.91;98523.00;3351316;29;20419;-79
2022/01/28 06:55:41;;;;;;;8.80;4.50;;;;;;;1.20;48.62;98533.16;3350225;29;20052;-81
2022/01/28 06:57:22;;;;;;;6.07;3.77;;;;;;;1.21;48.75;98516.41;3350345;29;20049;-81
2022/01/28 06:59:03;;;;;;;8.27;4.82;;;;;;;1.23;48.59;98522.34;3351202;29;20381;-82
2022/01/28 07:00:44;;;;;;;6.72;4.35;;;;;;;1.23;48.60;98506.59;3351357;29;20049;-79
2022/01/28 07:02:24;;;;;;;11.23;5.65;;;;;;;1.35;48.74;98516.78;3350106;29;20084;-81
2022/01/28 07:04:05;;;;;;;7.40;4.70;;;;;;;1.44;48.89;98508.72;3362227;29;20136;-79
2022/01/28 07:05:46;;;;;;;9.68;5.45;;;;;;;1.51;48.73;98516.75;3352725;29;20129;-80
2022/01/28 07:07:27;;;;;;;9.73;4.68;;;;;;;1.57;48.58;98515.25;3350487;29;20071;-80
2022/01/28 07:09:09;;;;;;;7.68;4.70;;;;;;;1.64;48.29;98509.19;3351087;29;20044;-81
2022/01/28 07:10:49;;;;;;;10.63;5.40;;;;;;;1.72;48.51;98519.66;3351031;29;20526;-83
2022/01/28 07:12:30;;;;;;;5.90;4.03;;;;;;;1.81;48.31;98511.78;3350675;29;20045;-81
2022/01/28 07:14:11;;;;;;;9.10;5.63;;;;;;;1.93;48.50;98520.94;3349527;29;20053;-79
2022/01/28 07:15:52;;;;;;;4.85;4.20;;;;;;;2.00;48.27;98516.66;3349937;29;20053;-80
2022/01/28 07:17:33;;;;;;;6.47;4.78;;;;;;;2.05;47.95;98509.09;3350894;29;20046;-84
2022/01/28 07:19:13;;;;;;;5.90;4.43;;;;;;;2.08;47.96;98514.00;3349656;29;20469;-83
2022/01/28 07:20:54;;;;;;;8.25;4.90;;;;;;;2.10;47.91;98522.53;3350251;29;20480;-80
2022/01/28 07:22:35;;;;;;;8.13;5.47;;;;;;;2.08;47.77;98514.00;3349669;29;20584;-79
2022/01/28 07:24:16;;;;;;;9.27;4.90;;;;;;;2.07;47.44;98509.75;3359789;29;20155;-84
2022/01/28 07:25:57;;;;;;;8.10;4.67;;;;;;;2.09;47.50;98520.06;3352904;29;20037;-80
2022/01/28 07:27:38;;;;;;;9.02;5.05;;;;;;;2.10;47.74;98519.09;3350680;29;20350;-80
2022/01/28 07:29:19;;;;;;;7.93;5.13;;;;;;;2.12;47.71;98525.84;3350808;29;20459;-82
2022/01/28 07:30:59;;;;;;;9.48;4.22;;;;;;;2.14;47.67;98523.88;3351366;29;20105;-80
2022/01/28 07:32:41;;;;;;;7.57;4.97;;;;;;;2.18;47.62;98534.84;3351510;29;20132;-79
2022/01/28 07:34:22;;;;;;;10.30;5.35;;;;;;;2.20;47.42;98519.72;3350292;29;20091;-79
2022/01/28 07:36:03;;;;;;;10.98;6.43;;;;;;;2.22;47.51;98519.53;3350617;29;20409;-80
2022/01/28 07:37:44;;;;;;;11.73;5.40;;;;;;;2.25;47.46;98527.13;3351158;29;20053;-79
2022/01/28 07:39:25;;;;;;;7.00;4.13;;;;;;;2.34;47.36;98533.97;3362413;29;20067;-78
2022/01/28 07:41:05;;;;;;;12.02;5.32;;;;;;;2.40;47.47;98522.75;3352626;29;20050;-80
2022/01/28 07:42:46;;;;;;;7.32;4.90;;;;;;;2.47;47.20;98534.22;3355251;29;20053;-81
2022/01/28 07:44:27;;;;;;;8.75;5.13;;;;;;;2.56;47.40;98535.03;3355627;29;20045;-81
2022/01/28 07:46:07;;;;;;;8.32;5.03;;;;;;;2.67;47.48;98529.38;3356475;29;20060;-81
2022/01/28 07:47:48;;;;;;;7.45;4.20;;;;;;;2.75;47.27;98525.88;3341659;29;20042;-80
2022/01/28 07:49:30;;;;;;;7.75;4.78;;;;;;;2.80;47.17;98523.56;3352717;29;20049;-78
2022/01/28 07:51:11;;;;;;;7.72;5.18;;;;;;;2.87;46.85;98528.94;3356116;29;20053;-79
2022/01/28 07:52:51;;;;;;;6.72;4.75;;;;;;;2.89;46.99;98527.78;3356262;29;20105;-80
2022/01/28 07:54:32;;;;;;;8.88;5.53;;;;;;;2.88;46.73;98518.22;3356195;29;20053;-78
2022/01/28 07:56:14;;;;;;;10.93;6.03;;;;;;;2.88;46.73;98530.56;3355311;29;20147;-79
2022/01/28 07:57:55;;;;;;;10.40;5.63;;;;;;;2.81;46.69;98514.66;3355273;29;20081;-80
2022/01/28 07:59:35;;;;;;;10.13;5.57;;;;;;;2.82;46.63;98525.00;3354388;29;20041;-82
2022/01/28 08:01:16;;;;;;;14.20;5.53;;;;;;;2.83;46.86;98517.94;3354408;29;20056;-81
2022/01/28 08:02:57;;;;;;;8.85;5.10;;;;;;;2.84;46.44;98519.59;3353964;29;20049;-78
2022/01/28 08:04:41;;;;;;;11.60;5.72;;;;;;;2.86;46.49;98522.03;3353270;29;20072;-81
2022/01/28 08:06:21;;;;;;;7.72;5.25;;;;;;;2.88;46.62;98523.50;3354172;29;20370;-76
2022/01/28 08:08:05;;;;;;;11.57;6.80;;;;;;;2.92;46.50;98516.91;3354425;29;20109;-81
2022/01/28 08:09:45;;;;;;;9.90;5.70;;;;;;;2.98;46.25;98512.75;3354375;29;20421;-80
2022/01/28 08:11:26;;;;;;;7.50;4.80;;;;;;;3.00;46.30;98519.47;3353311;29;20050;-77
2022/01/28 08:13:07;;;;;;;8.27;5.57;;;;;;;3.04;46.30;98519.94;3353458;29;20053;-78
2022/01/28 08:14:47;;;;;;;8.95;5.93;;;;;;;3.05;46.37;98517.13;3353956;29;20132;-80
2022/01/28 08:16:28;;;;;;;11.77;6.15;;;;;;;3.08;46.33;98512.53;3366307;29;20055;-80
2022/01/28 08:18:09;;;;;;;11.00;6.30;;;;;;;3.09;46.43;98511.53;3356491;29;20042;-79
2022/01/28 08:19:50;;;;;;;11.63;6.60;;;;;;;3.11;46.25;98520.06;3365994;29;20049;-82
2022/01/28 08:21:31;;;;;;;11.63;6.05;;;;;;;3.12;46.30;98521.69;3356532;29;20056;-82
2022/01/28 08:23:11;;;;;;;9.18;5.78;;;;;;;3.17;46.22;98516.72;3354048;29;20488;-81
2022/01/28 08:24:52;;;;;;;11.07;6.28;;;;;;;3.24;46.35;98520.28;3353371;29;20057;-79
2022/01/28 08:26:33;;;;;;;14.82;6.10;;;;;;;3.26;46.14;98507.78;3353992;29;20409;-77
2022/01/28 08:28:13;;;;;;;11.10;5.35;;;;;;;3.28;45.85;98521.59;3354337;29;20042;-80
2022/01/28 08:29:54;;;;;;;10.10;5.93;;;;;;;3.30;45.85;98518.75;3353577;29;20131;-80
2022/01/28 08:31:36;;;;;;;10.00;6.05;;;;;;;3.31;45.89;98510.69;3354293;29;20118;-80
2022/01/28 08:33:17;;;;;;;9.73;6.60;;;;;;;3.35;45.70;98506.69;3354573;29;20101;-79
2022/01/28 08:34:58;;;;;;;11.63;6.47;;;;;;;3.39;45.79;98510.63;3354199;29;20389;-81
2022/01/28 08:36:39;;;;;;;8.75;5.90;;;;;;;3.45;45.75;98503.81;3366544;29;20067;-80
2022/01/28 08:38:31;;;;;;;11.45;6.53;;;;;;;3.49;45.61;98503.28;3356515;29;20045;-80
2022/01/28 08:40:13;;;;;;;10.30;5.72;;;;;;;3.55;45.59;98507.03;3353139;29;20056;-85
2022/01/28 08:41:53;;;;;;;8.15;5.93;;;;;;;3.60;45.39;98504.69;3350738;29;20111;-79
2022/01/28 08:43:34;;;;;;;10.82;6.88;;;;;;;3.67;45.34;98502.16;3355289;29;20050;-81
2022/01/28 08:45:15;;;;;;;6.85;5.18;;;;;;;3.74;45.20;98497.78;3367988;29;20544;-78
2022/01/28 08:46:55;;;;;;;11.07;6.72;;;;;;;3.78;45.25;98496.44;3358093;29;20041;-80
2022/01/28 08:48:36;;;;;;;9.18;5.47;;;;;;;3.80;45.07;98485.72;3354539;29;20605;-80
2022/01/28 08:50:17;;;;;;;10.35;6.53;;;;;;;3.83;44.94;98496.72;3355369;29;20132;-77
2022/01/28 08:51:58;;;;;;;8.80;7.07;;;;;;;3.84;44.91;98497.53;3355533;29;20087;-79
2022/01/28 08:53:39;;;;;;;11.10;5.90;;;;;;;3.85;44.91;98502.63;3353026;29;20129;-80
2022/01/28 08:55:20;;;;;;;10.40;5.97;;;;;;;3.90;44.82;98505.53;3352444;29;20436;-81
2022/01/28 08:57:01;;;;;;;14.07;7.38;;;;;;;3.92;44.66;98500.06;3352007;29;20045;-82
2022/01/28 08:58:41;;;;;;;11.35;6.57;;;;;;;3.90;44.60;98489.72;3352485;29;20132;-79
2022/01/28 09:00:22;;;;;;;8.60;6.50;;;;;;;3.89;44.58;98488.06;3352110;29;20042;-81
2022/01/28 09:02:03;;;;;;;13.93;7.07;;;;;;;3.91;44.45;98487.91;3351539;29;20053;-82
2022/01/28 09:03:44;;;;;;;11.70;7.57;;;;;;;3.91;44.79;98487.91;3352092;29;20528;-78
2022/01/28 09:05:25;;;;;;;11.75;6.43;;;;;;;3.91;44.80;98488.72;3352604;29;20042;-80
2022/01/28 09:07:05;;;;;;;9.15;6.25;;;;;;;4.02;44.62;98481.34;3352411;29;20545;-81
2022/01/28 09:08:48;;;;;;;13.65;6.47;;;;;;;4.10;44.58;98495.25;3352492;29;20053;-83
2022/01/28 09:10:30;;;;;;;10.98;7.07;;;;;;;4.14;44.41;98487.81;3350906;29;20053;-82
2022/01/28 09:14:07;;;;;;;11.13;6.68;;;;;;;4.08;44.26;98481.44;3352605;29;20049;-80
2022/01/28 09:15:48;;;;;;;9.45;6.47;;;;;;;4.03;44.38;98486.44;3352322;29;20053;-81
2022/01/28 09:17:29;;;;;;;13.10;7.17;;;;;;;4.01;44.46;98479.72;3351566;29;20136;-80
2022/01/28 09:19:10;;;;;;;10.80;6.80;;;;;;;3.97;44.55;98486.34;3351983;29;20282;-80
2022/01/28 09:20:51;;;;;;;13.15;7.28;;;;;;;3.96;44.40;98474.19;3363457;29;20049;-82
2022/01/28 09:22:32;;;;;;;13.67;7.30;;;;;;;3.97;44.47;98473.16;3354133;29;20382;-82
2022/01/28 09:24:12;;;;;;;11.63;7.07;;;;;;;3.95;44.53;98470.72;3351197;29;20365;-77
2022/01/28 09:25:53;;;;;;;12.30;6.93;;;;;;;4.00;44.47;98483.34;3351032;29;20198;-82
2022/01/28 09:27:34;;;;;;;11.05;7.15;;;;;;;4.02;44.27;98487.44;3351709;29;20140;-82
2022/01/28 09:29:15;;;;;;;12.20;7.30;;;;;;;4.01;44.24;98477.91;3350227;29;20112;-78
2022/01/28 09:30:57;;;;;;;11.55;7.72;;;;;;;4.00;44.26;98472.81;3351052;29;20050;-84
2022/01/28 09:32:38;;;;;;;12.02;6.93;;;;;;;3.97;44.06;98475.81;3351520;29;20052;-82